sensor_id;sensor_type;location;lat;lon;timestamp;temperature;humidity
18141;DHT22;9196;49.194;12.526;2022-09-03T00:02:21;12.80;99.90
18141;DHT22;9196;49.194;12.526;2022-09-03T00:04:54;12.80;99.90
18141;DHT22;9196;49.194;12.526;2022-09-03T00:07:29;12.80;99.90
18141;DHT22;9196;49.194;12.526;2022-09-03T00:10:02;12.80;99.90
18141;DHT22;9196;49.194;12.526;2022-09-03T00:12:34;12.80;99.90
18141;DHT22;9196;49.194;12.526;2022-09-03T00:15:07;12.70;99.90
18141;DHT22;9196;49.194;12.526;2022-09-03T00:17:37;12.60;99.90
18141;DHT22;9196;49.194;12.526;2022-09-03T00:20:10;12.60;99.90
18141;DHT22;9196;49.194;12.526;2022-09-03T00:22:40;12.60;99.90
18141;DHT22;9196;49.194;12.526;2022-09-03T00:25:12;12.60;99.90
18141;DHT22;9196;49.194;12.526;2022-09-03T00:27:43;12.70;99.90
18141;DHT22;9196;49.194;12.526;2022-09-03T00:30:13;12.70;99.90
18141;DHT22;9196;49.194;12.526;2022-09-03T00:32:44;12.70;99.90
18141;DHT22;9196;49.194;12.526;2022-09-03T00:35:16;12.80;99.90
18141;DHT22;9196;49.194;12.526;2022-09-03T00:37:45;12.80;99.90
18141;DHT22;9196;49.194;12.526;2022-09-03T00:40:21;12.80;99.90
18141;DHT22;9196;49.194;12.526;2022-09-03T00:42:57;12.80;99.90
18141;DHT22;9196;49.194;12.526;2022-09-03T00:45:33;12.70;99.90
18141;DHT22;9196;49.194;12.526;2022-09-03T00:48:10;12.70;99.90
18141;DHT22;9196;49.194;12.526;2022-09-03T00:50:49;12.70;99.90
18141;DHT22;9196;49.194;12.526;2022-09-03T00:53:23;12.60;99.90
18141;DHT22;9196;49.194;12.526;2022-09-03T00:55:57;12.40;99.90
18141;DHT22;9196;49.194;12.526;2022-09-03T00:58:38;12.40;99.90
18141;DHT22;9196;49.194;12.526;2022-09-03T01:01:14;12.40;99.90
18141;DHT22;9196;49.194;12.526;2022-09-03T01:03:48;12.40;99.90
18141;DHT22;9196;49.194;12.526;2022-09-03T01:06:23;12.40;99.90
18141;DHT22;9196;49.194;12.526;2022-09-03T01:09:06;12.50;99.90
18141;DHT22;9196;49.194;12.526;2022-09-03T01:11:41;12.50;99.90
18141;DHT22;9196;49.194;12.526;2022-09-03T01:14:20;12.50;99.90
18141;DHT22;9196;49.194;12.526;2022-09-03T01:16:54;12.40;99.90
18141;DHT22;9196;49.194;12.526;2022-09-03T01:19:45;12.50;99.90
18141;DHT22;9196;49.194;12.526;2022-09-03T01:22:41;12.40;99.90
18141;DHT22;9196;49.194;12.526;2022-09-03T01:25:21;12.40;99.90
18141;DHT22;9196;49.194;12.526;2022-09-03T01:28:21;12.30;99.90
18141;DHT22;9196;49.194;12.526;2022-09-03T01:30:59;12.30;99.90
18141;DHT22;9196;49.194;12.526;2022-09-03T01:33:32;12.20;99.90
18141;DHT22;9196;49.194;12.526;2022-09-03T01:36:05;12.20;99.90
18141;DHT22;9196;49.194;12.526;2022-09-03T01:38:42;12.20;99.90
18141;DHT22;9196;49.194;12.526;2022-09-03T01:41:18;12.10;99.90
18141;DHT22;9196;49.194;12.526;2022-09-03T01:44:10;12.00;99.90
18141;DHT22;9196;49.194;12.526;2022-09-03T01:46:42;12.00;99.90
18141;DHT22;9196;49.194;12.526;2022-09-03T01:49:17;12.00;99.90
18141;DHT22;9196;49.194;12.526;2022-09-03T01:51:50;12.00;99.90
18141;DHT22;9196;49.194;12.526;2022-09-03T01:54:31;11.90;99.90
18141;DHT22;9196;49.194;12.526;2022-09-03T01:57:18;11.80;99.90
18141;DHT22;9196;49.194;12.526;2022-09-03T01:59:54;11.80;99.90
18141;DHT22;9196;49.194;12.526;2022-09-03T02:02:25;11.90;99.90
18141;DHT22;9196;49.194;12.526;2022-09-03T02:04:58;11.90;99.90
18141;DHT22;9196;49.194;12.526;2022-09-03T02:07:31;12.00;99.90
18141;DHT22;9196;49.194;12.526;2022-09-03T02:10:00;11.90;99.90
18141;DHT22;9196;49.194;12.526;2022-09-03T02:12:29;11.90;99.90
18141;DHT22;9196;49.194;12.526;2022-09-03T02:14:59;11.90;99.90
18141;DHT22;9196;49.194;12.526;2022-09-03T02:17:28;11.80;99.90
18141;DHT22;9196;49.194;12.526;2022-09-03T02:19:55;11.70;99.90
18141;DHT22;9196;49.194;12.526;2022-09-03T02:22:22;11.60;99.90
18141;DHT22;9196;49.194;12.526;2022-09-03T02:24:49;11.60;99.90
18141;DHT22;9196;49.194;12.526;2022-09-03T02:27:17;11.50;99.90
18141;DHT22;9196;49.194;12.526;2022-09-03T02:29:45;11.50;99.90
18141;DHT22;9196;49.194;12.526;2022-09-03T02:32:13;11.60;99.90
18141;DHT22;9196;49.194;12.526;2022-09-03T02:34:41;11.70;99.90
18141;DHT22;9196;49.194;12.526;2022-09-03T02:37:12;11.70;99.90
18141;DHT22;9196;49.194;12.526;2022-09-03T02:39:39;11.70;99.90
18141;DHT22;9196;49.194;12.526;2022-09-03T02:42:09;11.60;99.90
18141;DHT22;9196;49.194;12.526;2022-09-03T02:44:40;11.60;99.90
18141;DHT22;9196;49.194;12.526;2022-09-03T02:47:07;11.60;99.90
18141;DHT22;9196;49.194;12.526;2022-09-03T02:49:36;11.60;99.90
18141;DHT22;9196;49.194;12.526;2022-09-03T02:52:04;11.50;99.90
18141;DHT22;9196;49.194;12.526;2022-09-03T02:54:34;11.50;99.90
18141;DHT22;9196;49.194;12.526;2022-09-03T02:57:04;11.40;99.90
18141;DHT22;9196;49.194;12.526;2022-09-03T02:59:31;11.40;99.90
18141;DHT22;9196;49.194;12.526;2022-09-03T03:01:58;11.40;99.90
18141;DHT22;9196;49.194;12.526;2022-09-03T03:04:25;11.40;99.90
18141;DHT22;9196;49.194;12.526;2022-09-03T03:06:53;11.40;99.90
18141;DHT22;9196;49.194;12.526;2022-09-03T03:09:20;11.20;99.90
18141;DHT22;9196;49.194;12.526;2022-09-03T03:11:47;11.10;99.90
18141;DHT22;9196;49.194;12.526;2022-09-03T03:14:15;11.00;99.90
18141;DHT22;9196;49.194;12.526;2022-09-03T03:16:42;11.00;99.90
18141;DHT22;9196;49.194;12.526;2022-09-03T03:19:09;11.10;99.90
18141;DHT22;9196;49.194;12.526;2022-09-03T03:21:36;11.10;99.90
18141;DHT22;9196;49.194;12.526;2022-09-03T03:24:05;11.10;99.90
18141;DHT22;9196;49.194;12.526;2022-09-03T03:26:32;11.20;99.90
18141;DHT22;9196;49.194;12.526;2022-09-03T03:29:00;11.20;99.90
18141;DHT22;9196;49.194;12.526;2022-09-03T03:31:29;11.20;99.90
18141;DHT22;9196;49.194;12.526;2022-09-03T03:33:58;11.20;99.90
18141;DHT22;9196;49.194;12.526;2022-09-03T03:36:27;11.10;99.90
18141;DHT22;9196;49.194;12.526;2022-09-03T03:38:55;11.10;99.90
18141;DHT22;9196;49.194;12.526;2022-09-03T03:41:25;11.10;99.90
18141;DHT22;9196;49.194;12.526;2022-09-03T03:43:52;11.10;99.90
18141;DHT22;9196;49.194;12.526;2022-09-03T03:46:19;11.10;99.90
18141;DHT22;9196;49.194;12.526;2022-09-03T03:48:47;11.10;99.90
18141;DHT22;9196;49.194;12.526;2022-09-03T03:51:14;11.20;99.90
18141;DHT22;9196;49.194;12.526;2022-09-03T03:53:41;11.10;99.90
18141;DHT22;9196;49.194;12.526;2022-09-03T03:56:10;11.10;99.90
18141;DHT22;9196;49.194;12.526;2022-09-03T03:58:39;11.10;99.90
18141;DHT22;9196;49.194;12.526;2022-09-03T04:01:09;11.00;99.90
18141;DHT22;9196;49.194;12.526;2022-09-03T04:03:36;11.00;99.90
18141;DHT22;9196;49.194;12.526;2022-09-03T04:06:04;11.00;99.90
18141;DHT22;9196;49.194;12.526;2022-09-03T04:08:33;11.00;99.90
18141;DHT22;9196;49.194;12.526;2022-09-03T04:11:01;11.00;99.90
18141;DHT22;9196;49.194;12.526;2022-09-03T04:13:28;10.90;99.90
18141;DHT22;9196;49.194;12.526;2022-09-03T04:16:01;10.90;99.90
18141;DHT22;9196;49.194;12.526;2022-09-03T04:18:28;10.90;99.90
18141;DHT22;9196;49.194;12.526;2022-09-03T04:20:58;10.90;99.90
18141;DHT22;9196;49.194;12.526;2022-09-03T04:23:28;11.00;99.90
18141;DHT22;9196;49.194;12.526;2022-09-03T04:25:55;11.00;99.90
18141;DHT22;9196;49.194;12.526;2022-09-03T04:28:22;10.80;99.90
18141;DHT22;9196;49.194;12.526;2022-09-03T04:30:49;10.80;99.90
18141;DHT22;9196;49.194;12.526;2022-09-03T04:33:17;10.90;99.90
18141;DHT22;9196;49.194;12.526;2022-09-03T04:35:44;10.90;99.90
18141;DHT22;9196;49.194;12.526;2022-09-03T04:38:11;11.10;99.90
18141;DHT22;9196;49.194;12.526;2022-09-03T04:40:38;11.10;99.90
18141;DHT22;9196;49.194;12.526;2022-09-03T04:43:05;11.20;99.90
18141;DHT22;9196;49.194;12.526;2022-09-03T04:45:31;11.30;99.90
18141;DHT22;9196;49.194;12.526;2022-09-03T04:47:59;11.30;99.90
18141;DHT22;9196;49.194;12.526;2022-09-03T04:50:28;11.30;99.90
18141;DHT22;9196;49.194;12.526;2022-09-03T04:52:59;11.30;99.90
18141;DHT22;9196;49.194;12.526;2022-09-03T04:55:26;11.20;99.90
18141;DHT22;9196;49.194;12.526;2022-09-03T04:57:53;11.20;99.90
18141;DHT22;9196;49.194;12.526;2022-09-03T05:00:20;11.20;99.90
18141;DHT22;9196;49.194;12.526;2022-09-03T05:02:47;11.10;99.90
18141;DHT22;9196;49.194;12.526;2022-09-03T05:05:16;11.10;99.90
18141;DHT22;9196;49.194;12.526;2022-09-03T05:07:44;11.10;99.90
18141;DHT22;9196;49.194;12.526;2022-09-03T05:10:12;11.10;99.90
18141;DHT22;9196;49.194;12.526;2022-09-03T05:12:45;11.00;99.90
18141;DHT22;9196;49.194;12.526;2022-09-03T05:15:12;11.00;99.90
18141;DHT22;9196;49.194;12.526;2022-09-03T05:17:38;11.10;99.90
18141;DHT22;9196;49.194;12.526;2022-09-03T05:20:06;11.10;99.90
18141;DHT22;9196;49.194;12.526;2022-09-03T05:22:34;11.20;99.90
18141;DHT22;9196;49.194;12.526;2022-09-03T05:25:03;11.30;99.90
18141;DHT22;9196;49.194;12.526;2022-09-03T05:27:30;11.40;99.90
18141;DHT22;9196;49.194;12.526;2022-09-03T05:29:57;11.50;99.90
18141;DHT22;9196;49.194;12.526;2022-09-03T05:32:24;11.60;99.90
18141;DHT22;9196;49.194;12.526;2022-09-03T05:34:53;11.60;99.90
18141;DHT22;9196;49.194;12.526;2022-09-03T05:37:20;11.60;99.90
18141;DHT22;9196;49.194;12.526;2022-09-03T05:39:47;11.60;99.90
18141;DHT22;9196;49.194;12.526;2022-09-03T05:42:16;11.70;99.90
18141;DHT22;9196;49.194;12.526;2022-09-03T05:44:42;11.80;99.90
18141;DHT22;9196;49.194;12.526;2022-09-03T05:47:09;11.90;99.90
18141;DHT22;9196;49.194;12.526;2022-09-03T05:49:36;12.10;99.90
18141;DHT22;9196;49.194;12.526;2022-09-03T05:52:03;12.20;99.90
18141;DHT22;9196;49.194;12.526;2022-09-03T05:54:29;12.20;99.90
18141;DHT22;9196;49.194;12.526;2022-09-03T05:56:56;12.30;99.90
18141;DHT22;9196;49.194;12.526;2022-09-03T05:59:24;12.40;99.90
18141;DHT22;9196;49.194;12.526;2022-09-03T06:01:51;12.50;99.90
18141;DHT22;9196;49.194;12.526;2022-09-03T06:04:18;12.60;99.90
18141;DHT22;9196;49.194;12.526;2022-09-03T06:06:46;12.70;99.90
18141;DHT22;9196;49.194;12.526;2022-09-03T06:09:17;12.80;99.90
18141;DHT22;9196;49.194;12.526;2022-09-03T06:11:46;12.90;99.90
18141;DHT22;9196;49.194;12.526;2022-09-03T06:14:14;13.00;99.90
18141;DHT22;9196;49.194;12.526;2022-09-03T06:16:45;13.10;99.90
18141;DHT22;9196;49.194;12.526;2022-09-03T06:19:14;13.20;99.90
18141;DHT22;9196;49.194;12.526;2022-09-03T06:21:42;13.30;99.90
18141;DHT22;9196;49.194;12.526;2022-09-03T06:24:11;13.30;99.90
18141;DHT22;9196;49.194;12.526;2022-09-03T06:26:38;13.40;99.90
18141;DHT22;9196;49.194;12.526;2022-09-03T06:29:05;13.30;99.90
18141;DHT22;9196;49.194;12.526;2022-09-03T06:31:33;13.40;99.90
18141;DHT22;9196;49.194;12.526;2022-09-03T06:34:01;13.40;99.90
18141;DHT22;9196;49.194;12.526;2022-09-03T06:36:28;13.30;99.90
18141;DHT22;9196;49.194;12.526;2022-09-03T06:38:55;13.20;99.90
18141;DHT22;9196;49.194;12.526;2022-09-03T06:41:24;13.20;99.90
18141;DHT22;9196;49.194;12.526;2022-09-03T06:43:52;13.30;99.90
18141;DHT22;9196;49.194;12.526;2022-09-03T06:46:21;13.50;99.90
18141;DHT22;9196;49.194;12.526;2022-09-03T06:48:49;13.50;99.90
18141;DHT22;9196;49.194;12.526;2022-09-03T06:51:19;13.70;99.90
18141;DHT22;9196;49.194;12.526;2022-09-03T06:53:47;13.90;99.90
18141;DHT22;9196;49.194;12.526;2022-09-03T06:56:16;14.00;99.90
18141;DHT22;9196;49.194;12.526;2022-09-03T06:58:45;14.10;99.90
18141;DHT22;9196;49.194;12.526;2022-09-03T07:01:14;14.30;99.90
18141;DHT22;9196;49.194;12.526;2022-09-03T07:03:43;14.50;99.90
18141;DHT22;9196;49.194;12.526;2022-09-03T07:06:11;14.50;99.90
18141;DHT22;9196;49.194;12.526;2022-09-03T07:08:40;14.50;99.90
18141;DHT22;9196;49.194;12.526;2022-09-03T07:11:09;14.60;99.90
18141;DHT22;9196;49.194;12.526;2022-09-03T07:13:37;14.60;99.90
18141;DHT22;9196;49.194;12.526;2022-09-03T07:16:06;14.50;99.90
18141;DHT22;9196;49.194;12.526;2022-09-03T07:18:33;14.50;99.90
18141;DHT22;9196;49.194;12.526;2022-09-03T07:21:01;14.40;99.90
18141;DHT22;9196;49.194;12.526;2022-09-03T07:23:29;14.40;99.90
18141;DHT22;9196;49.194;12.526;2022-09-03T07:25:59;14.40;99.90
18141;DHT22;9196;49.194;12.526;2022-09-03T07:28:26;14.50;99.90
18141;DHT22;9196;49.194;12.526;2022-09-03T07:30:59;14.70;99.90
18141;DHT22;9196;49.194;12.526;2022-09-03T07:33:27;14.90;99.90
18141;DHT22;9196;49.194;12.526;2022-09-03T07:35:54;15.10;99.90
18141;DHT22;9196;49.194;12.526;2022-09-03T07:38:21;15.30;99.90
18141;DHT22;9196;49.194;12.526;2022-09-03T07:40:57;15.40;99.90
18141;DHT22;9196;49.194;12.526;2022-09-03T07:43:25;15.50;99.90
18141;DHT22;9196;49.194;12.526;2022-09-03T07:45:52;15.60;99.90
18141;DHT22;9196;49.194;12.526;2022-09-03T07:48:20;15.80;99.90
18141;DHT22;9196;49.194;12.526;2022-09-03T07:50:46;15.90;99.90
18141;DHT22;9196;49.194;12.526;2022-09-03T07:53:15;16.00;99.90
18141;DHT22;9196;49.194;12.526;2022-09-03T07:55:42;16.00;99.90
18141;DHT22;9196;49.194;12.526;2022-09-03T07:58:10;16.00;99.90
18141;DHT22;9196;49.194;12.526;2022-09-03T08:00:38;16.10;99.90
18141;DHT22;9196;49.194;12.526;2022-09-03T08:03:06;16.00;99.90
18141;DHT22;9196;49.194;12.526;2022-09-03T08:05:34;16.00;99.90
18141;DHT22;9196;49.194;12.526;2022-09-03T08:08:01;15.90;99.90
18141;DHT22;9196;49.194;12.526;2022-09-03T08:10:27;15.80;99.90
18141;DHT22;9196;49.194;12.526;2022-09-03T08:12:56;15.90;99.90
18141;DHT22;9196;49.194;12.526;2022-09-03T08:15:24;16.00;99.90
18141;DHT22;9196;49.194;12.526;2022-09-03T08:17:54;16.10;99.90
18141;DHT22;9196;49.194;12.526;2022-09-03T08:20:21;16.30;99.90
18141;DHT22;9196;49.194;12.526;2022-09-03T08:22:47;16.30;99.90
18141;DHT22;9196;49.194;12.526;2022-09-03T08:25:14;16.40;99.90
18141;DHT22;9196;49.194;12.526;2022-09-03T08:27:41;16.60;99.90
18141;DHT22;9196;49.194;12.526;2022-09-03T08:30:08;16.90;99.90
18141;DHT22;9196;49.194;12.526;2022-09-03T08:32:38;17.00;99.90
18141;DHT22;9196;49.194;12.526;2022-09-03T08:35:06;17.20;99.90
18141;DHT22;9196;49.194;12.526;2022-09-03T08:37:33;17.40;99.90
18141;DHT22;9196;49.194;12.526;2022-09-03T08:40:00;17.60;99.90
18141;DHT22;9196;49.194;12.526;2022-09-03T08:42:40;17.80;99.90
18141;DHT22;9196;49.194;12.526;2022-09-03T08:45:14;17.80;97.90
18141;DHT22;9196;49.194;12.526;2022-09-03T08:47:47;17.70;98.90
18141;DHT22;9196;49.194;12.526;2022-09-03T08:50:21;17.80;98.40
18141;DHT22;9196;49.194;12.526;2022-09-03T08:52:53;18.00;99.90
18141;DHT22;9196;49.194;12.526;2022-09-03T08:55:26;18.20;99.80
18141;DHT22;9196;49.194;12.526;2022-09-03T08:57:59;18.30;99.00
18141;DHT22;9196;49.194;12.526;2022-09-03T09:00:38;18.30;97.30
18141;DHT22;9196;49.194;12.526;2022-09-03T09:03:28;18.50;98.10
18141;DHT22;9196;49.194;12.526;2022-09-03T09:06:07;18.60;98.60
18141;DHT22;9196;49.194;12.526;2022-09-03T09:08:39;18.70;98.30
18141;DHT22;9196;49.194;12.526;2022-09-03T09:11:18;18.80;97.90
18141;DHT22;9196;49.194;12.526;2022-09-03T09:13:53;19.00;98.30
18141;DHT22;9196;49.194;12.526;2022-09-03T09:16:30;19.00;99.00
18141;DHT22;9196;49.194;12.526;2022-09-03T09:19:12;19.20;97.80
18141;DHT22;9196;49.194;12.526;2022-09-03T09:21:49;19.20;97.20
18141;DHT22;9196;49.194;12.526;2022-09-03T09:24:21;19.10;97.20
18141;DHT22;9196;49.194;12.526;2022-09-03T09:26:49;19.20;96.70
18141;DHT22;9196;49.194;12.526;2022-09-03T09:29:17;19.20;97.50
18141;DHT22;9196;49.194;12.526;2022-09-03T09:31:44;19.30;96.90
18141;DHT22;9196;49.194;12.526;2022-09-03T09:34:12;19.40;97.70
18141;DHT22;9196;49.194;12.526;2022-09-03T09:36:44;19.50;97.20
18141;DHT22;9196;49.194;12.526;2022-09-03T09:39:12;19.50;97.40
18141;DHT22;9196;49.194;12.526;2022-09-03T09:41:41;19.60;97.30
18141;DHT22;9196;49.194;12.526;2022-09-03T09:44:17;19.80;96.90
18141;DHT22;9196;49.194;12.526;2022-09-03T09:46:45;19.90;96.20
18141;DHT22;9196;49.194;12.526;2022-09-03T09:49:28;20.00;94.60
18141;DHT22;9196;49.194;12.526;2022-09-03T09:52:00;20.00;95.50
18141;DHT22;9196;49.194;12.526;2022-09-03T09:54:28;20.10;95.70
18141;DHT22;9196;49.194;12.526;2022-09-03T09:57:00;20.20;95.60
18141;DHT22;9196;49.194;12.526;2022-09-03T09:59:28;20.20;95.80
18141;DHT22;9196;49.194;12.526;2022-09-03T10:02:10;20.30;96.40
18141;DHT22;9196;49.194;12.526;2022-09-03T10:04:38;20.50;95.90
18141;DHT22;9196;49.194;12.526;2022-09-03T10:07:20;20.60;95.50
18141;DHT22;9196;49.194;12.526;2022-09-03T10:10:02;20.60;95.10
18141;DHT22;9196;49.194;12.526;2022-09-03T10:12:32;20.60;95.50
18141;DHT22;9196;49.194;12.526;2022-09-03T10:15:10;20.60;95.40
18141;DHT22;9196;49.194;12.526;2022-09-03T10:17:45;20.70;96.50
18141;DHT22;9196;49.194;12.526;2022-09-03T10:20:21;20.70;96.10
18141;DHT22;9196;49.194;12.526;2022-09-03T10:22:58;20.70;95.10
18141;DHT22;9196;49.194;12.526;2022-09-03T10:25:29;20.60;95.00
18141;DHT22;9196;49.194;12.526;2022-09-03T10:28:00;20.60;95.60
18141;DHT22;9196;49.194;12.526;2022-09-03T10:30:28;20.60;95.40
18141;DHT22;9196;49.194;12.526;2022-09-03T10:33:07;20.60;95.70
18141;DHT22;9196;49.194;12.526;2022-09-03T10:35:43;20.80;95.70
18141;DHT22;9196;49.194;12.526;2022-09-03T10:38:16;20.90;95.20
18141;DHT22;9196;49.194;12.526;2022-09-03T10:40:49;20.80;94.40
18141;DHT22;9196;49.194;12.526;2022-09-03T10:43:36;20.80;94.90
18141;DHT22;9196;49.194;12.526;2022-09-03T10:46:10;20.90;95.10
18141;DHT22;9196;49.194;12.526;2022-09-03T10:49:11;21.00;95.00
18141;DHT22;9196;49.194;12.526;2022-09-03T10:51:44;20.90;93.90
18141;DHT22;9196;49.194;12.526;2022-09-03T10:54:26;20.90;94.70
18141;DHT22;9196;49.194;12.526;2022-09-03T10:57:02;21.00;94.10
18141;DHT22;9196;49.194;12.526;2022-09-03T10:59:37;21.20;94.60
18141;DHT22;9196;49.194;12.526;2022-09-03T11:02:29;21.30;94.10
18141;DHT22;9196;49.194;12.526;2022-09-03T11:05:01;21.60;93.60
18141;DHT22;9196;49.194;12.526;2022-09-03T11:07:36;21.60;93.60
18141;DHT22;9196;49.194;12.526;2022-09-03T11:10:12;21.60;93.60
18141;DHT22;9196;49.194;12.526;2022-09-03T11:12:43;21.40;94.30
18141;DHT22;9196;49.194;12.526;2022-09-03T11:15:14;21.20;94.10
18141;DHT22;9196;49.194;12.526;2022-09-03T11:17:45;21.20;94.90
18141;DHT22;9196;49.194;12.526;2022-09-03T11:20:17;21.20;95.10
18141;DHT22;9196;49.194;12.526;2022-09-03T11:22:48;21.50;95.60
18141;DHT22;9196;49.194;12.526;2022-09-03T11:25:20;22.00;95.40
18141;DHT22;9196;49.194;12.526;2022-09-03T11:27:55;22.20;93.70
18141;DHT22;9196;49.194;12.526;2022-09-03T11:30:31;22.60;94.40
18141;DHT22;9196;49.194;12.526;2022-09-03T11:33:06;22.70;93.60
18141;DHT22;9196;49.194;12.526;2022-09-03T11:35:38;22.80;92.70
18141;DHT22;9196;49.194;12.526;2022-09-03T11:38:19;22.90;92.10
18141;DHT22;9196;49.194;12.526;2022-09-03T11:40:57;23.10;93.00
18141;DHT22;9196;49.194;12.526;2022-09-03T11:43:27;23.20;92.60
18141;DHT22;9196;49.194;12.526;2022-09-03T11:46:03;23.50;93.50
18141;DHT22;9196;49.194;12.526;2022-09-03T11:48:37;23.80;92.50
18141;DHT22;9196;49.194;12.526;2022-09-03T11:51:17;24.00;91.80
18141;DHT22;9196;49.194;12.526;2022-09-03T11:53:54;24.00;91.10
18141;DHT22;9196;49.194;12.526;2022-09-03T11:56:21;24.00;91.00
18141;DHT22;9196;49.194;12.526;2022-09-03T11:58:59;24.10;91.60
18141;DHT22;9196;49.194;12.526;2022-09-03T12:01:27;24.10;91.10
18141;DHT22;9196;49.194;12.526;2022-09-03T12:03:58;24.20;90.00
18141;DHT22;9196;49.194;12.526;2022-09-03T12:06:45;24.50;90.60
18141;DHT22;9196;49.194;12.526;2022-09-03T12:09:46;24.70;89.20
18141;DHT22;9196;49.194;12.526;2022-09-03T12:12:30;24.90;89.30
18141;DHT22;9196;49.194;12.526;2022-09-03T12:15:03;25.00;90.00
18141;DHT22;9196;49.194;12.526;2022-09-03T12:17:37;25.10;90.40
18141;DHT22;9196;49.194;12.526;2022-09-03T12:20:11;25.30;88.90
18141;DHT22;9196;49.194;12.526;2022-09-03T12:22:38;25.70;89.00
18141;DHT22;9196;49.194;12.526;2022-09-03T12:25:12;25.70;88.60
18141;DHT22;9196;49.194;12.526;2022-09-03T12:27:42;25.80;87.60
18141;DHT22;9196;49.194;12.526;2022-09-03T12:30:15;25.70;87.90
18141;DHT22;9196;49.194;12.526;2022-09-03T12:32:42;25.80;87.90
18141;DHT22;9196;49.194;12.526;2022-09-03T12:35:13;26.10;87.80
18141;DHT22;9196;49.194;12.526;2022-09-03T12:37:41;26.20;83.10
18141;DHT22;9196;49.194;12.526;2022-09-03T12:40:19;26.20;85.00
18141;DHT22;9196;49.194;12.526;2022-09-03T12:42:46;26.30;83.20
18141;DHT22;9196;49.194;12.526;2022-09-03T12:45:14;26.20;83.40
18141;DHT22;9196;49.194;12.526;2022-09-03T12:47:44;26.30;82.30
18141;DHT22;9196;49.194;12.526;2022-09-03T12:50:12;26.50;82.10
18141;DHT22;9196;49.194;12.526;2022-09-03T12:52:42;26.80;82.50
18141;DHT22;9196;49.194;12.526;2022-09-03T12:55:24;26.80;81.70
18141;DHT22;9196;49.194;12.526;2022-09-03T12:57:55;27.00;79.40
18141;DHT22;9196;49.194;12.526;2022-09-03T13:00:22;27.10;80.00
18141;DHT22;9196;49.194;12.526;2022-09-03T13:02:51;27.10;77.10
18141;DHT22;9196;49.194;12.526;2022-09-03T13:05:21;27.00;78.20
18141;DHT22;9196;49.194;12.526;2022-09-03T13:07:52;26.80;77.70
18141;DHT22;9196;49.194;12.526;2022-09-03T13:10:25;26.30;76.70
18141;DHT22;9196;49.194;12.526;2022-09-03T13:12:57;26.00;79.50
18141;DHT22;9196;49.194;12.526;2022-09-03T13:15:25;25.80;79.00
18141;DHT22;9196;49.194;12.526;2022-09-03T13:18:05;25.80;80.80
18141;DHT22;9196;49.194;12.526;2022-09-03T13:20:38;26.00;80.20
18141;DHT22;9196;49.194;12.526;2022-09-03T13:23:31;26.10;77.00
18141;DHT22;9196;49.194;12.526;2022-09-03T13:26:10;26.00;79.80
18141;DHT22;9196;49.194;12.526;2022-09-03T13:28:50;25.80;79.60
18141;DHT22;9196;49.194;12.526;2022-09-03T13:31:28;25.70;80.70
18141;DHT22;9196;49.194;12.526;2022-09-03T13:34:00;25.50;79.10
18141;DHT22;9196;49.194;12.526;2022-09-03T13:36:32;25.40;80.10
18141;DHT22;9196;49.194;12.526;2022-09-03T13:39:02;25.10;81.00
18141;DHT22;9196;49.194;12.526;2022-09-03T13:41:36;24.90;80.60
18141;DHT22;9196;49.194;12.526;2022-09-03T13:44:08;24.60;82.70
18141;DHT22;9196;49.194;12.526;2022-09-03T13:46:42;24.40;80.20
18141;DHT22;9196;49.194;12.526;2022-09-03T13:49:18;24.00;83.20
18141;DHT22;9196;49.194;12.526;2022-09-03T13:52:10;23.80;82.50
18141;DHT22;9196;49.194;12.526;2022-09-03T13:54:42;23.70;82.60
18141;DHT22;9196;49.194;12.526;2022-09-03T13:57:23;23.50;84.30
18141;DHT22;9196;49.194;12.526;2022-09-03T13:59:57;23.40;83.90
18141;DHT22;9196;49.194;12.526;2022-09-03T14:02:32;23.10;85.10
18141;DHT22;9196;49.194;12.526;2022-09-03T14:05:04;23.10;86.80
18141;DHT22;9196;49.194;12.526;2022-09-03T14:07:45;23.10;86.20
18141;DHT22;9196;49.194;12.526;2022-09-03T14:10:21;23.10;85.60
18141;DHT22;9196;49.194;12.526;2022-09-03T14:12:54;23.00;86.50
18141;DHT22;9196;49.194;12.526;2022-09-03T14:15:31;23.00;87.20
18141;DHT22;9196;49.194;12.526;2022-09-03T14:18:09;23.00;88.00
18141;DHT22;9196;49.194;12.526;2022-09-03T14:20:43;22.90;87.80
18141;DHT22;9196;49.194;12.526;2022-09-03T14:23:24;22.90;89.50
18141;DHT22;9196;49.194;12.526;2022-09-03T14:25:52;22.90;88.90
18141;DHT22;9196;49.194;12.526;2022-09-03T14:28:28;22.80;90.10
18141;DHT22;9196;49.194;12.526;2022-09-03T14:31:05;22.60;90.40
18141;DHT22;9196;49.194;12.526;2022-09-03T14:33:38;22.50;90.30
18141;DHT22;9196;49.194;12.526;2022-09-03T14:36:16;22.40;90.30
18141;DHT22;9196;49.194;12.526;2022-09-03T14:39:02;22.40;92.00
18141;DHT22;9196;49.194;12.526;2022-09-03T14:44:50;22.10;92.40
18141;DHT22;9196;49.194;12.526;2022-09-03T14:47:33;22.00;92.50
18141;DHT22;9196;49.194;12.526;2022-09-03T14:50:25;21.80;92.00
18141;DHT22;9196;49.194;12.526;2022-09-03T14:53:02;21.70;92.90
18141;DHT22;9196;49.194;12.526;2022-09-03T14:55:47;21.60;93.90
18141;DHT22;9196;49.194;12.526;2022-09-03T14:58:28;21.60;94.50
18141;DHT22;9196;49.194;12.526;2022-09-03T15:01:04;21.50;95.50
18141;DHT22;9196;49.194;12.526;2022-09-03T15:03:57;21.50;96.20
18141;DHT22;9196;49.194;12.526;2022-09-03T15:06:42;21.40;96.30
18141;DHT22;9196;49.194;12.526;2022-09-03T15:09:22;21.30;95.40
18141;DHT22;9196;49.194;12.526;2022-09-03T15:11:54;21.10;95.80
18141;DHT22;9196;49.194;12.526;2022-09-03T15:14:26;21.10;96.20
18141;DHT22;9196;49.194;12.526;2022-09-03T15:16:59;21.00;96.80
18141;DHT22;9196;49.194;12.526;2022-09-03T15:19:42;21.00;97.20
18141;DHT22;9196;49.194;12.526;2022-09-03T15:22:23;21.00;97.20
18141;DHT22;9196;49.194;12.526;2022-09-03T15:24:57;21.00;97.10
18141;DHT22;9196;49.194;12.526;2022-09-03T15:27:44;21.10;97.20
18141;DHT22;9196;49.194;12.526;2022-09-03T15:30:15;21.10;97.40
18141;DHT22;9196;49.194;12.526;2022-09-03T15:32:59;21.10;97.50
18141;DHT22;9196;49.194;12.526;2022-09-03T15:35:41;21.20;98.30
18141;DHT22;9196;49.194;12.526;2022-09-03T15:38:19;21.20;98.20
18141;DHT22;9196;49.194;12.526;2022-09-03T15:40:51;21.10;98.40
18141;DHT22;9196;49.194;12.526;2022-09-03T15:43:22;21.10;98.80
18141;DHT22;9196;49.194;12.526;2022-09-03T15:45:53;21.10;99.30
18141;DHT22;9196;49.194;12.526;2022-09-03T15:48:33;21.10;99.30
18141;DHT22;9196;49.194;12.526;2022-09-03T15:51:12;21.00;99.10
18141;DHT22;9196;49.194;12.526;2022-09-03T15:53:48;21.00;99.90
18141;DHT22;9196;49.194;12.526;2022-09-03T15:56:24;21.00;99.90
18141;DHT22;9196;49.194;12.526;2022-09-03T15:58:58;20.90;99.90
18141;DHT22;9196;49.194;12.526;2022-09-03T16:01:39;21.00;99.90
18141;DHT22;9196;49.194;12.526;2022-09-03T16:04:24;21.10;99.90
18141;DHT22;9196;49.194;12.526;2022-09-03T16:06:58;21.10;99.90